sensor_id;sensor_type;location;lat;lon;timestamp;P1;durP1;ratioP1;P2;durP2;ratioP2
66702;SDS011;60933;46.398;-63.798;2022-10-16T00:01:08;9.82;;;2.28;;
66702;SDS011;60933;46.398;-63.798;2022-10-16T00:03:37;7.53;;;3.30;;
66702;SDS011;60933;46.398;-63.798;2022-10-16T00:06:04;8.13;;;1.95;;
66702;SDS011;60933;46.398;-63.798;2022-10-16T00:08:31;8.38;;;2.03;;
66702;SDS011;60933;46.398;-63.798;2022-10-16T00:11:01;5.15;;;2.03;;
66702;SDS011;60933;46.398;-63.798;2022-10-16T00:13:30;6.22;;;2.35;;
66702;SDS011;60933;46.398;-63.798;2022-10-16T00:15:57;5.57;;;2.13;;
66702;SDS011;60933;46.398;-63.798;2022-10-16T00:18:24;6.72;;;2.55;;
66702;SDS011;60933;46.398;-63.798;2022-10-16T00:20:51;7.13;;;1.83;;
66702;SDS011;60933;46.398;-63.798;2022-10-16T00:23:17;6.20;;;2.08;;
66702;SDS011;60933;46.398;-63.798;2022-10-16T00:25:44;7.75;;;2.67;;
66702;SDS011;60933;46.398;-63.798;2022-10-16T00:28:10;4.88;;;2.10;;
66702;SDS011;60933;46.398;-63.798;2022-10-16T00:30:39;9.35;;;2.00;;
66702;SDS011;60933;46.398;-63.798;2022-10-16T00:33:05;11.45;;;2.15;;
66702;SDS011;60933;46.398;-63.798;2022-10-16T00:35:31;7.78;;;2.05;;
66702;SDS011;60933;46.398;-63.798;2022-10-16T00:37:57;4.88;;;1.60;;
66702;SDS011;60933;46.398;-63.798;2022-10-16T00:40:23;7.80;;;1.85;;
66702;SDS011;60933;46.398;-63.798;2022-10-16T00:42:49;8.85;;;2.38;;
66702;SDS011;60933;46.398;-63.798;2022-10-16T00:45:15;5.38;;;1.48;;
66702;SDS011;60933;46.398;-63.798;2022-10-16T00:47:45;6.05;;;1.85;;
66702;SDS011;60933;46.398;-63.798;2022-10-16T00:50:22;7.22;;;2.10;;
66702;SDS011;60933;46.398;-63.798;2022-10-16T00:52:53;7.15;;;1.92;;
66702;SDS011;60933;46.398;-63.798;2022-10-16T00:55:21;11.80;;;2.10;;
66702;SDS011;60933;46.398;-63.798;2022-10-16T00:57:48;8.13;;;2.40;;
66702;SDS011;60933;46.398;-63.798;2022-10-16T01:00:17;8.43;;;1.83;;
66702;SDS011;60933;46.398;-63.798;2022-10-16T01:02:51;8.98;;;1.65;;
66702;SDS011;60933;46.398;-63.798;2022-10-16T01:05:24;7.72;;;1.77;;
66702;SDS011;60933;46.398;-63.798;2022-10-16T01:08:30;8.32;;;2.17;;
66702;SDS011;60933;46.398;-63.798;2022-10-16T01:11:11;7.20;;;1.92;;
66702;SDS011;60933;46.398;-63.798;2022-10-16T01:13:54;7.70;;;2.47;;
66702;SDS011;60933;46.398;-63.798;2022-10-16T01:16:45;7.05;;;1.70;;
66702;SDS011;60933;46.398;-63.798;2022-10-16T01:27:15;5.28;;;2.20;;
66702;SDS011;60933;46.398;-63.798;2022-10-16T01:29:54;9.93;;;3.53;;
66702;SDS011;60933;46.398;-63.798;2022-10-16T01:35:25;8.07;;;2.00;;
66702;SDS011;60933;46.398;-63.798;2022-10-16T01:40:59;4.80;;;1.70;;
66702;SDS011;60933;46.398;-63.798;2022-10-16T01:43:37;7.22;;;2.17;;
66702;SDS011;60933;46.398;-63.798;2022-10-16T01:46:07;6.90;;;2.00;;
66702;SDS011;60933;46.398;-63.798;2022-10-16T01:48:36;6.07;;;1.88;;
66702;SDS011;60933;46.398;-63.798;2022-10-16T01:51:07;6.68;;;2.08;;
66702;SDS011;60933;46.398;-63.798;2022-10-16T01:53:37;8.18;;;1.92;;
66702;SDS011;60933;46.398;-63.798;2022-10-16T01:56:08;7.43;;;1.75;;
66702;SDS011;60933;46.398;-63.798;2022-10-16T01:58:47;11.02;;;2.90;;
66702;SDS011;60933;46.398;-63.798;2022-10-16T02:01:17;7.85;;;2.35;;
66702;SDS011;60933;46.398;-63.798;2022-10-16T02:03:45;8.00;;;2.25;;
66702;SDS011;60933;46.398;-63.798;2022-10-16T02:06:15;6.63;;;2.17;;
66702;SDS011;60933;46.398;-63.798;2022-10-16T02:08:41;14.10;;;3.60;;
66702;SDS011;60933;46.398;-63.798;2022-10-16T02:11:09;8.90;;;2.03;;
66702;SDS011;60933;46.398;-63.798;2022-10-16T02:13:55;7.65;;;2.03;;
66702;SDS011;60933;46.398;-63.798;2022-10-16T02:16:35;10.23;;;1.90;;
66702;SDS011;60933;46.398;-63.798;2022-10-16T02:19:06;7.82;;;1.92;;
66702;SDS011;60933;46.398;-63.798;2022-10-16T02:21:39;7.32;;;1.88;;
66702;SDS011;60933;46.398;-63.798;2022-10-16T02:24:15;5.75;;;1.77;;
66702;SDS011;60933;46.398;-63.798;2022-10-16T02:26:57;7.95;;;2.20;;
66702;SDS011;60933;46.398;-63.798;2022-10-16T02:29:40;7.75;;;2.03;;
66702;SDS011;60933;46.398;-63.798;2022-10-16T02:32:13;5.90;;;2.42;;
66702;SDS011;60933;46.398;-63.798;2022-10-16T02:34:44;8.18;;;2.50;;
66702;SDS011;60933;46.398;-63.798;2022-10-16T02:37:13;4.63;;;1.70;;
66702;SDS011;60933;46.398;-63.798;2022-10-16T02:39:44;6.82;;;1.83;;
66702;SDS011;60933;46.398;-63.798;2022-10-16T02:42:11;4.80;;;1.48;;
66702;SDS011;60933;46.398;-63.798;2022-10-16T02:44:38;9.32;;;2.13;;
66702;SDS011;60933;46.398;-63.798;2022-10-16T02:47:05;8.43;;;2.00;;
66702;SDS011;60933;46.398;-63.798;2022-10-16T02:49:31;6.18;;;1.95;;
66702;SDS011;60933;46.398;-63.798;2022-10-16T02:51:58;9.80;;;2.35;;
66702;SDS011;60933;46.398;-63.798;2022-10-16T02:54:24;3.63;;;1.42;;
66702;SDS011;60933;46.398;-63.798;2022-10-16T02:56:50;10.30;;;1.92;;
66702;SDS011;60933;46.398;-63.798;2022-10-16T02:59:17;8.77;;;2.08;;
66702;SDS011;60933;46.398;-63.798;2022-10-16T03:01:43;7.55;;;2.17;;
66702;SDS011;60933;46.398;-63.798;2022-10-16T03:04:09;4.28;;;1.70;;
66702;SDS011;60933;46.398;-63.798;2022-10-16T03:06:35;7.70;;;1.73;;
66702;SDS011;60933;46.398;-63.798;2022-10-16T03:09:01;9.70;;;2.05;;
66702;SDS011;60933;46.398;-63.798;2022-10-16T03:11:27;5.22;;;1.70;;
66702;SDS011;60933;46.398;-63.798;2022-10-16T03:13:54;5.95;;;1.60;;
66702;SDS011;60933;46.398;-63.798;2022-10-16T03:16:20;7.47;;;2.10;;
66702;SDS011;60933;46.398;-63.798;2022-10-16T03:18:49;5.15;;;1.73;;
66702;SDS011;60933;46.398;-63.798;2022-10-16T03:21:15;4.43;;;1.52;;
66702;SDS011;60933;46.398;-63.798;2022-10-16T03:23:42;5.97;;;2.10;;
66702;SDS011;60933;46.398;-63.798;2022-10-16T03:26:08;10.38;;;2.33;;
66702;SDS011;60933;46.398;-63.798;2022-10-16T03:28:34;3.80;;;1.70;;
66702;SDS011;60933;46.398;-63.798;2022-10-16T03:31:00;9.68;;;1.83;;
66702;SDS011;60933;46.398;-63.798;2022-10-16T03:33:26;6.68;;;2.10;;
66702;SDS011;60933;46.398;-63.798;2022-10-16T03:35:53;3.05;;;1.77;;
66702;SDS011;60933;46.398;-63.798;2022-10-16T03:38:20;7.18;;;2.15;;
66702;SDS011;60933;46.398;-63.798;2022-10-16T03:40:46;8.70;;;2.03;;
66702;SDS011;60933;46.398;-63.798;2022-10-16T03:43:13;8.23;;;2.50;;
66702;SDS011;60933;46.398;-63.798;2022-10-16T03:45:39;6.97;;;2.33;;
66702;SDS011;60933;46.398;-63.798;2022-10-16T03:48:05;6.05;;;2.08;;
66702;SDS011;60933;46.398;-63.798;2022-10-16T03:50:32;7.25;;;1.85;;
66702;SDS011;60933;46.398;-63.798;2022-10-16T03:52:58;6.85;;;2.05;;
66702;SDS011;60933;46.398;-63.798;2022-10-16T03:55:24;4.25;;;1.52;;
66702;SDS011;60933;46.398;-63.798;2022-10-16T03:57:50;8.45;;;2.28;;
66702;SDS011;60933;46.398;-63.798;2022-10-16T04:00:16;8.60;;;2.38;;
66702;SDS011;60933;46.398;-63.798;2022-10-16T04:02:42;7.70;;;1.73;;
66702;SDS011;60933;46.398;-63.798;2022-10-16T04:05:08;7.22;;;1.92;;
66702;SDS011;60933;46.398;-63.798;2022-10-16T04:07:34;9.35;;;2.58;;
66702;SDS011;60933;46.398;-63.798;2022-10-16T04:10:01;7.65;;;2.22;;
66702;SDS011;60933;46.398;-63.798;2022-10-16T04:12:27;7.57;;;2.45;;
66702;SDS011;60933;46.398;-63.798;2022-10-16T04:14:53;4.95;;;3.00;;
66702;SDS011;60933;46.398;-63.798;2022-10-16T04:17:19;6.18;;;2.00;;
66702;SDS011;60933;46.398;-63.798;2022-10-16T04:19:45;8.25;;;2.05;;
66702;SDS011;60933;46.398;-63.798;2022-10-16T04:22:11;8.45;;;2.15;;
66702;SDS011;60933;46.398;-63.798;2022-10-16T04:24:37;8.77;;;2.22;;
66702;SDS011;60933;46.398;-63.798;2022-10-16T04:27:04;5.85;;;1.80;;
66702;SDS011;60933;46.398;-63.798;2022-10-16T04:29:30;5.90;;;1.95;;
66702;SDS011;60933;46.398;-63.798;2022-10-16T04:31:56;5.00;;;2.10;;
66702;SDS011;60933;46.398;-63.798;2022-10-16T04:34:22;9.00;;;2.33;;
66702;SDS011;60933;46.398;-63.798;2022-10-16T04:36:48;6.28;;;1.77;;
66702;SDS011;60933;46.398;-63.798;2022-10-16T04:39:14;4.95;;;1.85;;
66702;SDS011;60933;46.398;-63.798;2022-10-16T04:41:41;4.72;;;1.50;;
66702;SDS011;60933;46.398;-63.798;2022-10-16T04:44:07;4.75;;;1.83;;
66702;SDS011;60933;46.398;-63.798;2022-10-16T04:46:34;6.82;;;1.98;;
66702;SDS011;60933;46.398;-63.798;2022-10-16T04:49:00;3.83;;;2.08;;
66702;SDS011;60933;46.398;-63.798;2022-10-16T04:51:26;5.18;;;1.80;;
66702;SDS011;60933;46.398;-63.798;2022-10-16T04:53:53;5.63;;;1.60;;
66702;SDS011;60933;46.398;-63.798;2022-10-16T04:56:20;5.68;;;1.85;;
66702;SDS011;60933;46.398;-63.798;2022-10-16T04:58:47;8.45;;;1.60;;
66702;SDS011;60933;46.398;-63.798;2022-10-16T05:01:13;8.25;;;2.40;;
66702;SDS011;60933;46.398;-63.798;2022-10-16T05:03:39;4.53;;;1.73;;
66702;SDS011;60933;46.398;-63.798;2022-10-16T05:06:05;5.75;;;2.00;;
66702;SDS011;60933;46.398;-63.798;2022-10-16T05:08:32;4.25;;;1.60;;
66702;SDS011;60933;46.398;-63.798;2022-10-16T05:10:58;5.53;;;1.95;;
66702;SDS011;60933;46.398;-63.798;2022-10-16T05:13:25;6.38;;;2.00;;
66702;SDS011;60933;46.398;-63.798;2022-10-16T05:15:51;4.50;;;1.85;;
66702;SDS011;60933;46.398;-63.798;2022-10-16T05:18:17;5.10;;;2.03;;
66702;SDS011;60933;46.398;-63.798;2022-10-16T05:20:43;5.55;;;2.00;;
66702;SDS011;60933;46.398;-63.798;2022-10-16T05:23:09;6.13;;;1.92;;
66702;SDS011;60933;46.398;-63.798;2022-10-16T05:25:36;4.25;;;1.50;;
66702;SDS011;60933;46.398;-63.798;2022-10-16T05:28:03;8.38;;;2.00;;
66702;SDS011;60933;46.398;-63.798;2022-10-16T05:30:29;5.72;;;1.70;;
66702;SDS011;60933;46.398;-63.798;2022-10-16T05:32:55;6.43;;;2.75;;
66702;SDS011;60933;46.398;-63.798;2022-10-16T05:35:21;7.90;;;1.73;;
66702;SDS011;60933;46.398;-63.798;2022-10-16T05:37:47;6.60;;;1.73;;
66702;SDS011;60933;46.398;-63.798;2022-10-16T05:40:13;8.85;;;1.92;;
66702;SDS011;60933;46.398;-63.798;2022-10-16T05:42:40;5.68;;;1.60;;
66702;SDS011;60933;46.398;-63.798;2022-10-16T05:45:07;10.20;;;2.03;;
66702;SDS011;60933;46.398;-63.798;2022-10-16T05:47:35;4.60;;;1.60;;
66702;SDS011;60933;46.398;-63.798;2022-10-16T05:50:02;6.30;;;1.63;;
66702;SDS011;60933;46.398;-63.798;2022-10-16T05:52:29;7.78;;;1.90;;
66702;SDS011;60933;46.398;-63.798;2022-10-16T05:54:55;5.13;;;1.88;;
66702;SDS011;60933;46.398;-63.798;2022-10-16T05:57:21;7.68;;;1.83;;
66702;SDS011;60933;46.398;-63.798;2022-10-16T05:59:47;7.10;;;1.85;;
66702;SDS011;60933;46.398;-63.798;2022-10-16T06:02:13;5.28;;;1.40;;
66702;SDS011;60933;46.398;-63.798;2022-10-16T06:04:39;8.10;;;2.10;;
66702;SDS011;60933;46.398;-63.798;2022-10-16T06:07:06;5.15;;;1.67;;
66702;SDS011;60933;46.398;-63.798;2022-10-16T06:09:32;7.22;;;1.92;;
66702;SDS011;60933;46.398;-63.798;2022-10-16T06:11:58;7.72;;;1.75;;
66702;SDS011;60933;46.398;-63.798;2022-10-16T06:14:24;6.05;;;1.85;;
66702;SDS011;60933;46.398;-63.798;2022-10-16T06:16:50;3.75;;;1.40;;
66702;SDS011;60933;46.398;-63.798;2022-10-16T06:19:16;7.30;;;2.38;;
66702;SDS011;60933;46.398;-63.798;2022-10-16T06:21:43;5.80;;;2.08;;
66702;SDS011;60933;46.398;-63.798;2022-10-16T06:24:10;8.55;;;2.05;;
66702;SDS011;60933;46.398;-63.798;2022-10-16T06:26:36;7.25;;;2.10;;
66702;SDS011;60933;46.398;-63.798;2022-10-16T06:29:03;4.18;;;2.50;;
66702;SDS011;60933;46.398;-63.798;2022-10-16T06:31:29;4.10;;;1.40;;
66702;SDS011;60933;46.398;-63.798;2022-10-16T06:33:58;4.97;;;2.78;;
66702;SDS011;60933;46.398;-63.798;2022-10-16T06:36:25;5.00;;;2.10;;
66702;SDS011;60933;46.398;-63.798;2022-10-16T06:38:52;5.00;;;1.77;;
66702;SDS011;60933;46.398;-63.798;2022-10-16T06:41:18;6.85;;;1.88;;
66702;SDS011;60933;46.398;-63.798;2022-10-16T06:43:46;3.78;;;1.80;;
66702;SDS011;60933;46.398;-63.798;2022-10-16T06:46:13;4.18;;;1.80;;
66702;SDS011;60933;46.398;-63.798;2022-10-16T06:48:41;5.28;;;2.25;;
66702;SDS011;60933;46.398;-63.798;2022-10-16T06:51:08;5.40;;;2.42;;
66702;SDS011;60933;46.398;-63.798;2022-10-16T06:53:40;7.72;;;2.58;;
66702;SDS011;60933;46.398;-63.798;2022-10-16T06:56:25;6.10;;;2.33;;
66702;SDS011;60933;46.398;-63.798;2022-10-16T06:58:54;6.30;;;2.25;;
66702;SDS011;60933;46.398;-63.798;2022-10-16T07:01:21;5.32;;;2.65;;
66702;SDS011;60933;46.398;-63.798;2022-10-16T07:03:48;8.73;;;2.10;;
66702;SDS011;60933;46.398;-63.798;2022-10-16T07:06:17;8.85;;;3.88;;
66702;SDS011;60933;46.398;-63.798;2022-10-16T07:08:45;5.30;;;2.30;;
66702;SDS011;60933;46.398;-63.798;2022-10-16T07:11:16;6.38;;;2.22;;
66702;SDS011;60933;46.398;-63.798;2022-10-16T07:13:44;6.72;;;2.78;;
66702;SDS011;60933;46.398;-63.798;2022-10-16T07:16:13;5.88;;;2.35;;
66702;SDS011;60933;46.398;-63.798;2022-10-16T07:18:41;4.78;;;3.50;;
66702;SDS011;60933;46.398;-63.798;2022-10-16T07:21:11;4.18;;;2.22;;
66702;SDS011;60933;46.398;-63.798;2022-10-16T07:23:39;6.55;;;2.22;;
66702;SDS011;60933;46.398;-63.798;2022-10-16T07:26:06;3.75;;;1.83;;
66702;SDS011;60933;46.398;-63.798;2022-10-16T07:28:32;4.93;;;2.70;;
66702;SDS011;60933;46.398;-63.798;2022-10-16T07:31:06;5.72;;;2.00;;
66702;SDS011;60933;46.398;-63.798;2022-10-16T07:33:36;4.05;;;1.92;;
66702;SDS011;60933;46.398;-63.798;2022-10-16T07:36:03;3.22;;;1.50;;
66702;SDS011;60933;46.398;-63.798;2022-10-16T07:38:29;4.38;;;2.15;;
66702;SDS011;60933;46.398;-63.798;2022-10-16T07:40:56;5.07;;;1.60;;
66702;SDS011;60933;46.398;-63.798;2022-10-16T07:43:24;3.45;;;1.70;;
66702;SDS011;60933;46.398;-63.798;2022-10-16T07:45:51;1.88;;;1.35;;
66702;SDS011;60933;46.398;-63.798;2022-10-16T07:48:17;1.83;;;1.20;;
66702;SDS011;60933;46.398;-63.798;2022-10-16T07:50:43;3.45;;;1.20;;
66702;SDS011;60933;46.398;-63.798;2022-10-16T07:53:10;3.55;;;1.20;;
66702;SDS011;60933;46.398;-63.798;2022-10-16T07:55:37;2.17;;;1.02;;
66702;SDS011;60933;46.398;-63.798;2022-10-16T07:58:03;5.25;;;1.40;;
66702;SDS011;60933;46.398;-63.798;2022-10-16T08:00:30;2.47;;;1.00;;
66702;SDS011;60933;46.398;-63.798;2022-10-16T08:02:57;2.15;;;1.00;;
66702;SDS011;60933;46.398;-63.798;2022-10-16T08:05:29;2.33;;;1.02;;
66702;SDS011;60933;46.398;-63.798;2022-10-16T08:07:57;3.72;;;1.10;;
66702;SDS011;60933;46.398;-63.798;2022-10-16T08:10:24;1.42;;;0.80;;
66702;SDS011;60933;46.398;-63.798;2022-10-16T08:12:51;5.25;;;1.25;;
66702;SDS011;60933;46.398;-63.798;2022-10-16T08:15:18;1.38;;;0.80;;
66702;SDS011;60933;46.398;-63.798;2022-10-16T08:17:53;2.75;;;1.02;;
66702;SDS011;60933;46.398;-63.798;2022-10-16T08:20:23;1.50;;;0.80;;
66702;SDS011;60933;46.398;-63.798;2022-10-16T08:22:50;1.20;;;0.90;;
66702;SDS011;60933;46.398;-63.798;2022-10-16T08:25:17;3.08;;;0.90;;
66702;SDS011;60933;46.398;-63.798;2022-10-16T08:27:43;2.50;;;0.88;;
66702;SDS011;60933;46.398;-63.798;2022-10-16T08:30:10;2.38;;;1.92;;
66702;SDS011;60933;46.398;-63.798;2022-10-16T08:32:36;1.58;;;1.13;;
66702;SDS011;60933;46.398;-63.798;2022-10-16T08:35:02;2.03;;;1.00;;
66702;SDS011;60933;46.398;-63.798;2022-10-16T08:37:32;2.45;;;1.05;;
66702;SDS011;60933;46.398;-63.798;2022-10-16T08:39:58;1.60;;;0.77;;
66702;SDS011;60933;46.398;-63.798;2022-10-16T08:45:29;1.50;;;0.77;;
66702;SDS011;60933;46.398;-63.798;2022-10-16T08:50:48;2.00;;;1.40;;
66702;SDS011;60933;46.398;-63.798;2022-10-16T08:53:25;2.15;;;1.70;;
66702;SDS011;60933;46.398;-63.798;2022-10-16T08:55:56;1.75;;;1.10;;
66702;SDS011;60933;46.398;-63.798;2022-10-16T08:58:27;1.98;;;1.05;;
66702;SDS011;60933;46.398;-63.798;2022-10-16T09:00:56;3.05;;;1.30;;
66702;SDS011;60933;46.398;-63.798;2022-10-16T09:08:57;2.83;;;0.80;;
66702;SDS011;60933;46.398;-63.798;2022-10-16T09:17:23;4.55;;;1.42;;
66702;SDS011;60933;46.398;-63.798;2022-10-16T09:22:45;1.58;;;1.00;;
66702;SDS011;60933;46.398;-63.798;2022-10-16T09:25:13;2.97;;;1.00;;
66702;SDS011;60933;46.398;-63.798;2022-10-16T09:27:42;2.20;;;1.20;;
66702;SDS011;60933;46.398;-63.798;2022-10-16T09:30:16;2.78;;;0.88;;
66702;SDS011;60933;46.398;-63.798;2022-10-16T09:32:44;1.80;;;1.10;;
66702;SDS011;60933;46.398;-63.798;2022-10-16T09:35:15;1.90;;;1.05;;
66702;SDS011;60933;46.398;-63.798;2022-10-16T09:37:50;2.75;;;1.13;;
66702;SDS011;60933;46.398;-63.798;2022-10-16T09:40:26;3.05;;;1.02;;
66702;SDS011;60933;46.398;-63.798;2022-10-16T09:42:56;1.48;;;0.90;;
66702;SDS011;60933;46.398;-63.798;2022-10-16T09:45:28;2.35;;;1.08;;
66702;SDS011;60933;46.398;-63.798;2022-10-16T09:47:55;4.25;;;1.67;;
66702;SDS011;60933;46.398;-63.798;2022-10-16T09:50:23;2.30;;;0.98;;
66702;SDS011;60933;46.398;-63.798;2022-10-16T09:53:02;2.28;;;1.00;;
66702;SDS011;60933;46.398;-63.798;2022-10-16T09:55:36;2.80;;;1.88;;
66702;SDS011;60933;46.398;-63.798;2022-10-16T09:58:02;2.90;;;1.30;;
66702;SDS011;60933;46.398;-63.798;2022-10-16T10:00:28;3.47;;;2.13;;
66702;SDS011;60933;46.398;-63.798;2022-10-16T10:02:55;1.95;;;1.40;;
66702;SDS011;60933;46.398;-63.798;2022-10-16T10:05:22;1.83;;;0.95;;
66702;SDS011;60933;46.398;-63.798;2022-10-16T10:07:54;2.33;;;1.40;;
66702;SDS011;60933;46.398;-63.798;2022-10-16T10:10:29;2.70;;;1.30;;
66702;SDS011;60933;46.398;-63.798;2022-10-16T10:12:57;4.22;;;1.85;;
66702;SDS011;60933;46.398;-63.798;2022-10-16T10:15:24;3.90;;;2.08;;
66702;SDS011;60933;46.398;-63.798;2022-10-16T10:17:56;2.55;;;1.58;;
66702;SDS011;60933;46.398;-63.798;2022-10-16T10:22:54;2.72;;;1.75;;
66702;SDS011;60933;46.398;-63.798;2022-10-16T10:25:31;2.92;;;2.20;;
66702;SDS011;60933;46.398;-63.798;2022-10-16T10:36:21;4.35;;;2.85;;
66702;SDS011;60933;46.398;-63.798;2022-10-16T11:01:13;4.57;;;2.30;;
66702;SDS011;60933;46.398;-63.798;2022-10-16T11:06:47;6.40;;;2.58;;
66702;SDS011;60933;46.398;-63.798;2022-10-16T11:09:22;4.45;;;2.63;;
66702;SDS011;60933;46.398;-63.798;2022-10-16T11:11:54;5.53;;;3.05;;
66702;SDS011;60933;46.398;-63.798;2022-10-16T11:14:28;6.40;;;2.85;;
66702;SDS011;60933;46.398;-63.798;2022-10-16T11:17:18;7.18;;;3.40;;
66702;SDS011;60933;46.398;-63.798;2022-10-16T11:22:30;5.90;;;3.38;;
66702;SDS011;60933;46.398;-63.798;2022-10-16T11:27:52;6.75;;;3.03;;
66702;SDS011;60933;46.398;-63.798;2022-10-16T11:30:26;4.45;;;2.45;;
66702;SDS011;60933;46.398;-63.798;2022-10-16T11:35:37;5.80;;;3.20;;
66702;SDS011;60933;46.398;-63.798;2022-10-16T11:38:26;6.15;;;3.78;;
66702;SDS011;60933;46.398;-63.798;2022-10-16T11:40:54;6.65;;;3.08;;
66702;SDS011;60933;46.398;-63.798;2022-10-16T11:43:35;4.35;;;2.58;;
66702;SDS011;60933;46.398;-63.798;2022-10-16T11:46:15;5.07;;;2.80;;
66702;SDS011;60933;46.398;-63.798;2022-10-16T11:48:54;7.10;;;3.08;;
66702;SDS011;60933;46.398;-63.798;2022-10-16T11:54:07;4.95;;;2.70;;
66702;SDS011;60933;46.398;-63.798;2022-10-16T11:56:43;3.20;;;2.03;;
66702;SDS011;60933;46.398;-63.798;2022-10-16T11:59:14;4.03;;;2.42;;
66702;SDS011;60933;46.398;-63.798;2022-10-16T12:01:47;3.20;;;1.70;;
66702;SDS011;60933;46.398;-63.798;2022-10-16T12:07:22;2.45;;;1.30;;
66702;SDS011;60933;46.398;-63.798;2022-10-16T12:09:57;2.17;;;1.58;;
66702;SDS011;60933;46.398;-63.798;2022-10-16T12:17:48;2.17;;;1.10;;
66702;SDS011;60933;46.398;-63.798;2022-10-16T12:20:19;2.53;;;1.65;;
66702;SDS011;60933;46.398;-63.798;2022-10-16T12:22:49;1.40;;;1.15;;
66702;SDS011;60933;46.398;-63.798;2022-10-16T12:25:30;3.13;;;1.50;;
66702;SDS011;60933;46.398;-63.798;2022-10-16T12:28:00;2.03;;;0.93;;
66702;SDS011;60933;46.398;-63.798;2022-10-16T12:30:56;2.03;;;1.52;;
66702;SDS011;60933;46.398;-63.798;2022-10-16T12:33:26;2.75;;;1.05;;
66702;SDS011;60933;46.398;-63.798;2022-10-16T12:36:04;2.03;;;0.88;;
66702;SDS011;60933;46.398;-63.798;2022-10-16T12:38:57;2.13;;;1.00;;
66702;SDS011;60933;46.398;-63.798;2022-10-16T12:41:33;2.00;;;0.77;;
66702;SDS011;60933;46.398;-63.798;2022-10-16T12:44:03;1.90;;;1.25;;
66702;SDS011;60933;46.398;-63.798;2022-10-16T12:49:19;1.83;;;0.98;;
66702;SDS011;60933;46.398;-63.798;2022-10-16T12:51:49;2.22;;;1.52;;
66702;SDS011;60933;46.398;-63.798;2022-10-16T13:05:26;2.03;;;0.73;;
66702;SDS011;60933;46.398;-63.798;2022-10-16T13:11:41;1.60;;;0.82;;
66702;SDS011;60933;46.398;-63.798;2022-10-16T13:14:38;2.63;;;0.68;;
66702;SDS011;60933;46.398;-63.798;2022-10-16T13:17:53;2.45;;;0.90;;
66702;SDS011;60933;46.398;-63.798;2022-10-16T13:20:56;1.75;;;0.50;;
66702;SDS011;60933;46.398;-63.798;2022-10-16T13:26:21;2.40;;;0.73;;
66702;SDS011;60933;46.398;-63.798;2022-10-16T13:28:52;2.58;;;1.13;;
66702;SDS011;60933;46.398;-63.798;2022-10-16T13:31:19;1.38;;;1.05;;
66702;SDS011;60933;46.398;-63.798;2022-10-16T13:33:53;1.30;;;0.70;;
66702;SDS011;60933;46.398;-63.798;2022-10-16T13:36:25;1.17;;;0.50;;
66702;SDS011;60933;46.398;-63.798;2022-10-16T13:41:43;1.25;;;0.50;;
66702;SDS011;60933;46.398;-63.798;2022-10-16T13:44:17;1.13;;;0.40;;
66702;SDS011;60933;46.398;-63.798;2022-10-16T13:46:45;1.75;;;0.43;;
66702;SDS011;60933;46.398;-63.798;2022-10-16T13:49:15;2.80;;;0.50;;
66702;SDS011;60933;46.398;-63.798;2022-10-16T13:51:55;1.00;;;0.50;;
66702;SDS011;60933;46.398;-63.798;2022-10-16T13:54:25;0.90;;;0.55;;
66702;SDS011;60933;46.398;-63.798;2022-10-16T13:56:56;1.48;;;0.75;;
66702;SDS011;60933;46.398;-63.798;2022-10-16T13:59:33;1.40;;;0.60;;
66702;SDS011;60933;46.398;-63.798;2022-10-16T14:02:00;1.00;;;0.63;;
66702;SDS011;60933;46.398;-63.798;2022-10-16T14:04:40;2.05;;;0.73;;
66702;SDS011;60933;46.398;-63.798;2022-10-16T14:07:29;1.15;;;0.43;;
66702;SDS011;60933;46.398;-63.798;2022-10-16T14:09:56;2.45;;;0.68;;
66702;SDS011;60933;46.398;-63.798;2022-10-16T14:12:30;3.30;;;0.60;;
66702;SDS011;60933;46.398;-63.798;2022-10-16T14:14:57;2.65;;;0.50;;
66702;SDS011;60933;46.398;-63.798;2022-10-16T14:19:56;2.05;;;0.60;;
66702;SDS011;60933;46.398;-63.798;2022-10-16T14:30:34;2.38;;;0.70;;
66702;SDS011;60933;46.398;-63.798;2022-10-16T14:33:05;2.67;;;0.57;;
66702;SDS011;60933;46.398;-63.798;2022-10-16T14:35:45;1.25;;;0.50;;
66702;SDS011;60933;46.398;-63.798;2022-10-16T14:38:18;0.85;;;0.60;;
66702;SDS011;60933;46.398;-63.798;2022-10-16T14:40:48;2.30;;;0.50;;
66702;SDS011;60933;46.398;-63.798;2022-10-16T14:43:28;0.50;;;0.40;;
66702;SDS011;60933;46.398;-63.798;2022-10-16T14:46:03;1.50;;;0.55;;
66702;SDS011;60933;46.398;-63.798;2022-10-16T14:48:41;0.80;;;0.40;;
66702;SDS011;60933;46.398;-63.798;2022-10-16T14:51:13;1.55;;;0.57;;
66702;SDS011;60933;46.398;-63.798;2022-10-16T14:53:40;2.30;;;0.60;;
66702;SDS011;60933;46.398;-63.798;2022-10-16T14:56:14;1.05;;;0.60;;
66702;SDS011;60933;46.398;-63.798;2022-10-16T14:58:47;1.13;;;0.93;;
66702;SDS011;60933;46.398;-63.798;2022-10-16T15:01:15;3.13;;;0.70;;
66702;SDS011;60933;46.398;-63.798;2022-10-16T15:03:41;1.77;;;0.55;;
66702;SDS011;60933;46.398;-63.798;2022-10-16T15:06:11;2.97;;;0.70;;
66702;SDS011;60933;46.398;-63.798;2022-10-16T15:08:38;1.33;;;0.80;;
66702;SDS011;60933;46.398;-63.798;2022-10-16T15:11:05;1.13;;;0.50;;
66702;SDS011;60933;46.398;-63.798;2022-10-16T15:16:02;1.23;;;0.50;;
66702;SDS011;60933;46.398;-63.798;2022-10-16T15:18:28;1.70;;;0.50;;
66702;SDS011;60933;46.398;-63.798;2022-10-16T15:20:54;0.82;;;0.43;;
66702;SDS011;60933;46.398;-63.798;2022-10-16T15:23:21;1.35;;;1.02;;
66702;SDS011;60933;46.398;-63.798;2022-10-16T15:25:54;1.45;;;1.35;;
66702;SDS011;60933;46.398;-63.798;2022-10-16T15:28:22;0.70;;;0.40;;
66702;SDS011;60933;46.398;-63.798;2022-10-16T15:30:50;0.70;;;0.52;;
66702;SDS011;60933;46.398;-63.798;2022-10-16T15:33:19;0.82;;;0.40;;
66702;SDS011;60933;46.398;-63.798;2022-10-16T15:35:51;0.65;;;0.30;;
66702;SDS011;60933;46.398;-63.798;2022-10-16T15:38:19;0.50;;;0.50;;
66702;SDS011;60933;46.398;-63.798;2022-10-16T15:40:46;1.25;;;0.63;;
66702;SDS011;60933;46.398;-63.798;2022-10-16T15:43:14;0.65;;;0.40;;
66702;SDS011;60933;46.398;-63.798;2022-10-16T15:45:40;0.85;;;0.40;;
66702;SDS011;60933;46.398;-63.798;2022-10-16T15:48:10;1.17;;;0.88;;
66702;SDS011;60933;46.398;-63.798;2022-10-16T15:50:38;0.95;;;0.47;;
66702;SDS011;60933;46.398;-63.798;2022-10-16T15:53:05;0.90;;;0.60;;
66702;SDS011;60933;46.398;-63.798;2022-10-16T15:55:31;1.30;;;0.50;;
66702;SDS011;60933;46.398;-63.798;2022-10-16T15:57:59;0.82;;;0.40;;
66702;SDS011;60933;46.398;-63.798;2022-10-16T16:19:12;2.65;;;1.05;;
66702;SDS011;60933;46.398;-63.798;2022-10-16T16:21:38;2.08;;;1.75;;
66702;SDS011;60933;46.398;-63.798;2022-10-16T16:24:04;3.00;;;2.15;;
66702;SDS011;60933;46.398;-63.798;2022-10-16T16:26:33;2.50;;;2.30;;
66702;SDS011;60933;46.398;-63.798;2022-10-16T16:29:03;2.55;;;1.75;;
66702;SDS011;60933;46.398;-63.798;2022-10-16T16:31:30;2.13;;;1.70;;
66702;SDS011;60933;46.398;-63.798;2022-10-16T16:33:57;2.05;;;1.85;;
66702;SDS011;60933;46.398;-63.798;2022-10-16T16:36:24;3.75;;;1.70;;
66702;SDS011;60933;46.398;-63.798;2022-10-16T16:38:51;1.73;;;1.30;;
66702;SDS011;60933;46.398;-63.798;2022-10-16T16:41:18;1.73;;;1.63;;
66702;SDS011;60933;46.398;-63.798;2022-10-16T16:43:49;1.65;;;1.55;;
66702;SDS011;60933;46.398;-63.798;2022-10-16T16:46:16;2.17;;;1.30;;
66702;SDS011;60933;46.398;-63.798;2022-10-16T16:48:43;1.77;;;1.40;;
66702;SDS011;60933;46.398;-63.798;2022-10-16T16:51:11;1.80;;;1.20;;
66702;SDS011;60933;46.398;-63.798;2022-10-16T16:53:41;1.00;;;0.82;;
66702;SDS011;60933;46.398;-63.798;2022-10-16T16:56:09;2.35;;;1.95;;
66702;SDS011;60933;46.398;-63.798;2022-10-16T16:58:35;3.83;;;1.48;;
66702;SDS011;60933;46.398;-63.798;2022-10-16T17:01:01;2.47;;;1.38;;